createdAt,value
2023-01-26T00:00:46.390Z,1.65
2023-01-26T00:03:49.959Z,1.66
2023-01-26T00:06:52.657Z,1.69
2023-01-26T00:09:56.426Z,1.66
2023-01-26T00:12:59.260Z,1.65
2023-01-26T00:16:03.314Z,1.66
2023-01-26T00:19:06.254Z,1.66
2023-01-26T00:22:09.796Z,1.59
2023-01-26T00:25:12.693Z,1.58
2023-01-26T00:28:15.757Z,1.58
2023-01-26T00:31:21.383Z,1.55
2023-01-26T00:34:26.416Z,1.56
2023-01-26T00:37:33.681Z,1.57
2023-01-26T00:40:40.233Z,1.58
2023-01-26T00:43:42.957Z,1.57
2023-01-26T00:46:45.931Z,1.55
2023-01-26T00:49:48.877Z,1.57
2023-01-26T00:52:53.940Z,1.56
2023-01-26T00:56:00.234Z,1.57
2023-01-26T00:59:04.177Z,1.58
2023-01-26T01:02:08.233Z,1.60
2023-01-26T01:05:13.846Z,1.58
2023-01-26T01:08:19.637Z,1.57
2023-01-26T01:11:22.849Z,1.58
2023-01-26T01:14:27.336Z,1.55
2023-01-26T01:17:31.493Z,1.56
2023-01-26T01:20:35.282Z,1.55
2023-01-26T01:23:38.634Z,1.57
2023-01-26T01:26:41.307Z,1.57
2023-01-26T01:29:45.356Z,1.58
2023-01-26T01:32:51.633Z,1.56
2023-01-26T01:36:16.371Z,1.57
2023-01-26T01:39:19.379Z,1.53
2023-01-26T01:42:22.734Z,1.50
2023-01-26T01:45:26.645Z,1.50
2023-01-26T01:48:38.015Z,1.51
2023-01-26T01:51:45.735Z,1.48
2023-01-26T01:54:49.028Z,1.49
2023-01-26T01:58:00.347Z,1.45
2023-01-26T02:01:10.101Z,1.49
2023-01-26T02:04:14.927Z,1.52
2023-01-26T02:07:18.902Z,1.51
2023-01-26T02:10:24.165Z,1.53
2023-01-26T02:13:29.052Z,1.48
2023-01-26T02:16:32.163Z,1.47
2023-01-26T02:19:50.908Z,1.46
2023-01-26T02:23:15.768Z,1.45
2023-01-26T02:26:23.868Z,1.42
2023-01-26T02:29:27.072Z,1.41
2023-01-26T02:32:29.962Z,1.41
2023-01-26T02:35:33.161Z,1.39
2023-01-26T02:38:43.553Z,1.37
2023-01-26T02:42:09.364Z,1.42
2023-01-26T02:45:16.125Z,1.38
2023-01-26T02:48:38.714Z,1.38
2023-01-26T02:51:41.546Z,1.32
2023-01-26T02:55:04.767Z,1.37
2023-01-26T02:58:08.654Z,1.35
2023-01-26T03:01:12.243Z,1.33
2023-01-26T03:04:23.016Z,1.34
2023-01-26T03:07:25.979Z,1.31
2023-01-26T03:10:30.740Z,1.33
2023-01-26T03:13:34.044Z,1.28
2023-01-26T03:16:38.570Z,1.24
2023-01-26T03:19:59.770Z,1.26
2023-01-26T03:23:27.319Z,1.23
2023-01-26T03:26:50.104Z,1.27
2023-01-26T03:29:56.344Z,1.25
2023-01-26T03:33:01.666Z,1.23
2023-01-26T03:36:09.975Z,1.26
2023-01-26T03:39:34.501Z,1.25
2023-01-26T03:42:56.483Z,1.25
2023-01-26T03:46:23.074Z,1.29
2023-01-26T03:49:44.772Z,1.28
2023-01-26T03:53:07.223Z,1.28
2023-01-26T03:56:24.922Z,1.27
2023-01-26T03:59:39.947Z,1.23
2023-01-26T04:03:01.770Z,1.19
2023-01-26T04:06:24.208Z,1.18
2023-01-26T04:09:32.321Z,1.19
2023-01-26T04:12:38.170Z,1.22
2023-01-26T04:16:00.961Z,1.23
2023-01-26T04:19:23.768Z,1.20
2023-01-26T04:22:28.573Z,1.28
2023-01-26T04:25:32.539Z,1.25
2023-01-26T04:28:36.097Z,1.24
2023-01-26T04:31:40.827Z,1.27
2023-01-26T04:34:47.842Z,1.28
2023-01-26T04:37:52.859Z,1.30
2023-01-26T04:40:57.452Z,1.30
2023-01-26T04:44:02.281Z,1.28
2023-01-26T04:47:07.254Z,1.24
2023-01-26T04:50:11.968Z,1.31
2023-01-26T04:53:15.559Z,1.31
2023-01-26T04:56:29.541Z,1.34
2023-01-26T04:59:34.547Z,1.27
2023-01-26T05:02:41.058Z,1.24
2023-01-26T05:05:46.363Z,1.15
2023-01-26T05:08:51.357Z,1.16
2023-01-26T05:12:15.224Z,1.17
2023-01-26T05:15:22.760Z,1.19
2023-01-26T05:18:28.311Z,1.17
2023-01-26T05:21:32.893Z,1.11
2023-01-26T05:24:36.763Z,1.10
2023-01-26T05:27:43.099Z,1.10
2023-01-26T05:30:54.036Z,1.11
2023-01-26T05:33:59.958Z,1.08
2023-01-26T05:37:05.322Z,1.07
2023-01-26T05:40:13.494Z,1.08
2023-01-26T05:43:20.280Z,1.09
2023-01-26T05:46:24.394Z,1.08
2023-01-26T05:49:28.608Z,1.04
2023-01-26T05:52:32.701Z,1.04
2023-01-26T05:55:36.105Z,1.03
2023-01-26T05:58:39.626Z,1.01
2023-01-26T06:01:43.038Z,1.00
2023-01-26T06:04:55.159Z,1.02
2023-01-26T06:08:13.357Z,1.01
2023-01-26T06:11:19.659Z,1.03
2023-01-26T06:14:26.088Z,1.04
2023-01-26T06:17:39.165Z,1.02
2023-01-26T06:20:45.252Z,1.01
2023-01-26T06:23:51.439Z,1.01
2023-01-26T06:26:56.887Z,1.00
2023-01-26T06:30:09.552Z,1.03
2023-01-26T06:33:16.126Z,1.01
2023-01-26T06:36:23.447Z,0.94
2023-01-26T06:39:32.276Z,0.91
2023-01-26T06:42:37.769Z,1.01
2023-01-26T06:45:47.732Z,0.99
2023-01-26T06:49:03.095Z,1.00
2023-01-26T06:52:30.130Z,1.03
2023-01-26T06:55:40.308Z,1.04
2023-01-26T06:58:49.123Z,1.07
2023-01-26T07:01:53.415Z,1.05
2023-01-26T07:04:58.611Z,1.06
2023-01-26T07:08:05.372Z,1.11
2023-01-26T07:11:15.429Z,1.10
2023-01-26T07:14:20.264Z,1.09
2023-01-26T07:17:24.558Z,1.10
2023-01-26T07:20:29.804Z,1.04
2023-01-26T07:23:35.168Z,1.06
2023-01-26T07:26:38.619Z,1.19
2023-01-26T07:29:45.103Z,1.16
2023-01-26T07:32:49.350Z,1.19
2023-01-26T07:36:01.864Z,1.18
2023-01-26T07:39:16.094Z,1.19
2023-01-26T07:42:22.152Z,1.14
2023-01-26T07:45:33.299Z,1.17
2023-01-26T07:48:40.090Z,1.16
2023-01-26T07:51:46.082Z,1.16
2023-01-26T07:54:51.756Z,1.21
2023-01-26T07:57:58.338Z,1.22
2023-01-26T08:01:09.105Z,1.23
2023-01-26T08:04:15.179Z,1.23
2023-01-26T08:07:18.711Z,1.25
2023-01-26T08:10:23.286Z,1.19
2023-01-26T08:13:37.364Z,1.26
2023-01-26T08:16:45.743Z,1.28
2023-01-26T08:19:49.539Z,1.25
2023-01-26T08:22:59.099Z,1.27
2023-01-26T08:26:11.221Z,1.33
2023-01-26T08:29:15.433Z,1.31
2023-01-26T08:32:18.574Z,1.29
2023-01-26T08:35:23.195Z,1.26
2023-01-26T08:38:31.996Z,1.23
2023-01-26T08:41:42.004Z,1.22
2023-01-26T08:44:46.269Z,1.30
2023-01-26T08:47:54.122Z,1.30
2023-01-26T08:51:02.362Z,1.27
2023-01-26T08:54:14.660Z,1.28
2023-01-26T08:57:18.096Z,1.31
2023-01-26T09:00:24.207Z,1.32
2023-01-26T09:03:32.331Z,1.31
2023-01-26T09:06:46.002Z,1.33
2023-01-26T09:09:50.789Z,1.31
2023-01-26T09:12:58.794Z,1.39
2023-01-26T09:16:09.237Z,1.40
2023-01-26T09:19:20.607Z,1.41
2023-01-26T09:22:25.366Z,1.49
2023-01-26T09:25:37.720Z,1.56
2023-01-26T09:28:48.160Z,1.49
2023-01-26T09:31:53.387Z,1.56
2023-01-26T09:34:58.077Z,1.51
2023-01-26T09:38:05.406Z,1.50
2023-01-26T09:41:38.019Z,1.52
2023-01-26T09:44:54.243Z,1.54
2023-01-26T09:48:25.255Z,1.58
2023-01-26T09:51:48.372Z,1.56
2023-01-26T09:54:54.218Z,1.62
2023-01-26T09:58:10.051Z,1.57
2023-01-26T10:01:32.253Z,1.57
2023-01-26T10:04:57.005Z,1.67
2023-01-26T10:08:00.974Z,1.76
2023-01-26T10:11:18.999Z,1.77
2023-01-26T10:14:48.314Z,1.77
2023-01-26T10:17:55.140Z,1.81
2023-01-26T10:21:04.076Z,1.83
2023-01-26T10:24:21.290Z,1.74
2023-01-26T10:27:27.069Z,1.75
2023-01-26T10:30:31.158Z,1.77
2023-01-26T10:33:36.812Z,1.81
2023-01-26T10:36:49.096Z,1.73
2023-01-26T10:40:17.105Z,1.76
2023-01-26T10:43:21.340Z,1.74
2023-01-26T10:46:33.316Z,1.75
2023-01-26T10:49:38.222Z,1.76
2023-01-26T10:53:16.400Z,1.73
2023-01-26T10:56:24.605Z,1.72
2023-01-26T10:59:48.219Z,1.72
2023-01-26T11:02:55.784Z,1.76
2023-01-26T11:06:18.136Z,1.78
2023-01-26T11:09:32.174Z,1.78
2023-01-26T11:12:43.985Z,1.78
2023-01-26T11:16:05.151Z,1.78
2023-01-26T11:19:30.322Z,1.74
2023-01-26T11:22:54.095Z,1.71
2023-01-26T11:26:32.387Z,1.83
2023-01-26T11:29:55.227Z,1.97
2023-01-26T11:33:21.649Z,1.96
2023-01-26T11:36:59.295Z,2.05
2023-01-26T11:40:21.992Z,2.01
2023-01-26T11:44:13.305Z,1.97
2023-01-26T11:47:30.484Z,1.99
2023-01-26T11:50:57.929Z,1.99
2023-01-26T11:54:52.283Z,1.96
2023-01-26T11:58:29.068Z,1.95
2023-01-26T12:01:44.288Z,2.04
2023-01-26T12:04:50.154Z,2.02
2023-01-26T12:08:46.986Z,2.06
2023-01-26T12:12:15.930Z,2.10
2023-01-26T12:15:36.029Z,2.06
2023-01-26T12:19:05.482Z,2.13
2023-01-26T12:22:32.095Z,2.26
2023-01-26T12:26:06.121Z,2.16
2023-01-26T12:29:22.327Z,2.11
2023-01-26T12:32:30.021Z,2.19
2023-01-26T12:36:01.004Z,2.21
2023-01-26T12:39:09.752Z,2.22
2023-01-26T12:42:42.294Z,2.20
2023-01-26T12:45:58.658Z,2.21
2023-01-26T12:49:28.201Z,2.16
2023-01-26T12:52:44.359Z,2.22
2023-01-26T12:56:06.192Z,2.26
2023-01-26T12:59:46.411Z,2.22
2023-01-26T13:02:59.710Z,2.20
2023-01-26T13:06:10.223Z,2.20
2023-01-26T13:09:28.366Z,2.23
2023-01-26T13:13:02.491Z,2.12
2023-01-26T13:16:25.951Z,2.18
2023-01-26T13:19:37.497Z,2.24
2023-01-26T13:22:43.080Z,2.15
2023-01-26T13:26:10.051Z,2.18
2023-01-26T13:29:27.744Z,2.21
2023-01-26T13:32:44.093Z,2.15
2023-01-26T13:35:53.888Z,2.18
2023-01-26T13:39:07.241Z,2.15
2023-01-26T13:42:23.768Z,2.10
2023-01-26T13:45:40.348Z,2.19
2023-01-26T13:48:49.246Z,2.20
2023-01-26T13:51:54.109Z,2.23
2023-01-26T13:55:02.154Z,2.13
2023-01-26T13:58:17.802Z,2.15
2023-01-26T14:01:31.965Z,2.14
2023-01-26T14:04:43.946Z,2.11
2023-01-26T14:07:52.089Z,2.09
2023-01-26T14:11:00.139Z,2.05
2023-01-26T14:14:23.706Z,2.05
2023-01-26T14:17:39.067Z,2.05
2023-01-26T14:20:46.261Z,2.01
2023-01-26T14:23:59.145Z,1.98
2023-01-26T14:27:22.732Z,1.97
2023-01-26T14:30:35.237Z,1.95
2023-01-26T14:33:48.040Z,1.90
2023-01-26T14:37:16.033Z,1.93
2023-01-26T14:40:26.077Z,1.94
2023-01-26T14:43:41.948Z,1.91
2023-01-26T14:47:07.191Z,1.86
2023-01-26T14:50:22.457Z,1.84
2023-01-26T14:53:29.197Z,1.86
2023-01-26T14:56:41.093Z,1.84
2023-01-26T15:00:03.176Z,1.82
2023-01-26T15:03:24.556Z,1.81
2023-01-26T15:06:44.378Z,1.82
2023-01-26T15:09:54.971Z,1.78
2023-01-26T15:13:08.316Z,1.75
2023-01-26T15:16:18.759Z,1.75
2023-01-26T15:19:27.534Z,1.69
2023-01-26T15:22:33.200Z,1.67
2023-01-26T15:25:41.041Z,1.69
2023-01-26T15:28:52.926Z,1.67
2023-01-26T15:32:04.953Z,1.71
2023-01-26T15:35:24.092Z,1.74
2023-01-26T15:38:38.941Z,1.73
2023-01-26T15:42:01.884Z,1.72
2023-01-26T15:45:26.078Z,1.73
2023-01-26T15:48:35.171Z,1.68
2023-01-26T15:51:54.141Z,1.63
2023-01-26T15:55:24.468Z,1.64
2023-01-26T15:58:37.023Z,1.65
2023-01-26T16:01:46.436Z,1.59
2023-01-26T16:04:54.212Z,1.58
2023-01-26T16:08:01.599Z,1.56
2023-01-26T16:11:12.978Z,1.54
2023-01-26T16:14:23.387Z,1.55
2023-01-26T16:17:39.618Z,1.54
2023-01-26T16:20:57.029Z,1.56
2023-01-26T16:24:06.300Z,1.50
2023-01-26T16:27:15.296Z,1.52
2023-01-26T16:30:23.524Z,1.48
2023-01-26T16:33:37.045Z,1.53
2023-01-26T16:36:53.567Z,1.51
2023-01-26T16:40:06.990Z,1.47
2023-01-26T16:43:27.094Z,1.42
2023-01-26T16:46:33.858Z,1.37
2023-01-26T16:49:42.268Z,1.36
2023-01-26T16:52:54.291Z,1.34
2023-01-26T16:56:03.244Z,1.31
2023-01-26T16:59:20.921Z,1.29
2023-01-26T17:02:39.907Z,1.26
2023-01-26T17:05:51.217Z,1.27
2023-01-26T17:09:00.545Z,1.26
2023-01-26T17:12:12.999Z,1.27
2023-01-26T17:15:18.317Z,1.25
2023-01-26T17:18:25.214Z,1.27
2023-01-26T17:21:37.855Z,1.23
2023-01-26T17:24:49.895Z,1.23
2023-01-26T17:28:12.992Z,1.16
2023-01-26T17:31:37.009Z,1.14
2023-01-26T17:34:55.997Z,1.15
2023-01-26T17:38:13.223Z,1.11
2023-01-26T17:41:23.165Z,1.10
2023-01-26T17:49:40.000Z,1.06
2023-01-26T17:52:51.275Z,1.05
2023-01-26T17:56:11.023Z,1.06
2023-01-26T17:59:16.964Z,1.03
2023-01-26T18:02:32.108Z,1.02
2023-01-26T18:05:59.977Z,1.05
2023-01-26T18:09:12.183Z,1.03
2023-01-26T18:12:23.455Z,1.01
2023-01-26T18:15:41.334Z,0.99
2023-01-26T18:19:01.299Z,1.04
2023-01-26T18:22:12.771Z,1.07
2023-01-26T18:25:20.980Z,1.08
2023-01-26T18:28:24.648Z,1.05
2023-01-26T18:31:38.178Z,1.04
2023-01-26T18:34:52.151Z,1.11
2023-01-26T18:38:04.014Z,1.14
2023-01-26T18:41:17.035Z,1.14
2023-01-26T18:44:29.422Z,1.02
2023-01-26T18:47:33.948Z,1.00
2023-01-26T18:50:57.032Z,1.06
2023-01-26T18:54:04.150Z,1.07
2023-01-26T18:57:12.875Z,1.07
2023-01-26T19:00:17.194Z,1.05
2023-01-26T19:03:23.970Z,0.98
2023-01-26T19:06:42.878Z,0.98
2023-01-26T19:09:53.189Z,0.97
2023-01-26T19:13:01.960Z,0.94
2023-01-26T19:16:15.159Z,0.93
2023-01-26T19:19:22.238Z,0.94
2023-01-26T19:22:45.879Z,0.90
2023-01-26T19:25:53.437Z,0.88
2023-01-26T19:29:00.055Z,0.88
2023-01-26T19:32:04.949Z,0.87
2023-01-26T19:35:20.029Z,0.87
2023-01-26T19:38:37.241Z,0.86
2023-01-26T19:42:01.029Z,0.84
2023-01-26T19:45:10.345Z,0.82
2023-01-26T19:48:17.946Z,0.84
2023-01-26T19:51:25.017Z,0.80
2023-01-26T19:54:38.167Z,0.84
2023-01-26T19:57:43.853Z,0.86
2023-01-26T20:00:58.203Z,0.89
2023-01-26T20:04:14.018Z,0.88
2023-01-26T20:07:26.247Z,0.89
2023-01-26T20:10:32.189Z,0.84
2023-01-26T20:13:44.165Z,0.86
2023-01-26T20:16:59.826Z,0.85
2023-01-26T20:20:14.050Z,0.89
2023-01-26T20:23:18.360Z,0.89
2023-01-26T20:26:35.358Z,0.87
2023-01-26T20:29:48.092Z,0.88
2023-01-26T20:32:55.954Z,0.91
2023-01-26T20:36:26.176Z,0.89
2023-01-26T20:39:31.400Z,0.92
2023-01-26T20:42:39.435Z,0.96
2023-01-26T20:45:43.249Z,0.98
2023-01-26T20:49:01.875Z,1.00
2023-01-26T20:52:08.003Z,0.97
2023-01-26T20:55:16.110Z,0.95
2023-01-26T20:58:30.939Z,0.89
2023-01-26T21:01:42.892Z,0.84
2023-01-26T21:04:47.420Z,0.86
2023-01-26T21:07:55.992Z,0.83
2023-01-26T21:11:02.669Z,0.88
2023-01-26T21:14:13.757Z,0.87
2023-01-26T21:17:28.890Z,0.88
2023-01-26T21:20:33.949Z,0.82
2023-01-26T21:23:38.662Z,0.84
2023-01-26T21:26:44.484Z,0.84
2023-01-26T21:29:48.177Z,0.81
2023-01-26T21:32:55.375Z,0.83
2023-01-26T21:36:04.426Z,0.83
2023-01-26T21:39:13.552Z,0.83
2023-01-26T21:42:16.514Z,0.87
2023-01-26T21:45:46.841Z,0.85
2023-01-26T21:48:52.924Z,0.84
2023-01-26T21:52:20.914Z,0.83
2023-01-26T21:55:24.780Z,0.82
2023-01-26T21:58:47.077Z,0.87
2023-01-26T22:01:55.590Z,0.85
2023-01-26T22:05:00.473Z,0.82
2023-01-26T22:08:05.625Z,0.79
2023-01-26T22:11:14.675Z,0.81
2023-01-26T22:14:21.170Z,0.78
2023-01-26T22:17:26.955Z,0.79
2023-01-26T22:20:31.171Z,0.77
2023-01-26T22:23:36.543Z,0.77
2023-01-26T22:26:42.054Z,0.76
2023-01-26T22:29:45.482Z,0.77
2023-01-26T22:32:49.933Z,0.77
2023-01-26T22:36:08.917Z,0.80
2023-01-26T22:39:21.260Z,0.82
2023-01-26T22:42:32.933Z,0.87
2023-01-26T22:45:36.593Z,0.87
2023-01-26T22:48:39.823Z,0.88
2023-01-26T22:51:44.068Z,0.86
2023-01-26T22:54:47.918Z,0.84
2023-01-26T22:57:52.325Z,0.83
2023-01-26T23:01:07.558Z,0.79
2023-01-26T23:04:16.868Z,0.80
2023-01-26T23:07:24.628Z,0.79
2023-01-26T23:10:31.890Z,0.82
2023-01-26T23:13:37.982Z,0.82
2023-01-26T23:16:41.202Z,0.78
2023-01-26T23:19:44.952Z,0.76
2023-01-26T23:22:48.859Z,0.78
2023-01-26T23:25:52.795Z,0.77
2023-01-26T23:28:55.888Z,0.79
2023-01-26T23:31:59.165Z,0.78
2023-01-26T23:35:02.190Z,0.76
2023-01-26T23:38:06.904Z,0.76
2023-01-26T23:41:12.643Z,0.74
2023-01-26T23:44:22.956Z,0.78
2023-01-26T23:47:25.942Z,0.74
2023-01-26T23:50:30.161Z,0.75
2023-01-26T23:53:36.663Z,0.78
2023-01-26T23:56:41.211Z,0.82
2023-01-26T23:59:45.925Z,0.82
